createdAt,value
2023-03-23T00:02:01.052Z,4.4
2023-03-23T00:07:01.135Z,4.2
2023-03-23T00:12:01.082Z,3.8
2023-03-23T00:17:01.063Z,2.8
2023-03-23T00:22:01.158Z,2.4
2023-03-23T00:32:01.098Z,1.8
2023-03-23T00:37:01.078Z,1.4
2023-03-23T00:42:02.259Z,1.9
2023-03-23T00:47:01.066Z,1.5
2023-03-23T00:52:01.090Z,1.1
2023-03-23T00:57:01.485Z,0.9
2023-03-23T01:02:01.068Z,0.7
2023-03-23T01:12:01.104Z,0.4
2023-03-23T01:17:01.076Z,0.6
2023-03-23T01:27:01.085Z,0.8
2023-03-23T01:37:01.102Z,0.7
2023-03-23T01:42:01.139Z,0.5
2023-03-23T01:47:01.051Z,0.4
2023-03-23T01:52:01.067Z,0.2
2023-03-23T02:07:01.090Z,0.2
2023-03-23T02:12:01.051Z,0.1
2023-03-23T02:37:01.100Z,0.2
2023-03-23T02:52:04.340Z,0.2
2023-03-23T03:12:01.070Z,0.5
2023-03-23T03:27:01.067Z,0.5
2023-03-23T03:42:01.096Z,0.2
2023-03-23T03:47:01.063Z,0.4
2023-03-23T03:52:01.063Z,0.8
2023-03-23T03:57:01.483Z,1.1
2023-03-23T04:07:01.539Z,0.9
2023-03-23T04:12:01.119Z,1.2
2023-03-23T04:17:01.057Z,0.8
2023-03-23T04:22:01.069Z,1.1
2023-03-23T04:27:02.881Z,1.3
2023-03-23T04:32:01.074Z,1.7
2023-03-23T04:37:01.071Z,1.4
2023-03-23T04:42:01.063Z,1.6
2023-03-23T04:47:01.085Z,1.3
2023-03-23T05:02:13.786Z,1.3
2023-03-23T05:12:01.628Z,1.1
2023-03-23T05:17:01.070Z,1.0
2023-03-23T05:27:01.065Z,1.2
2023-03-23T05:42:01.078Z,1.7
2023-03-23T05:47:01.086Z,1.6
2023-03-23T05:52:01.055Z,1.4
2023-03-23T05:57:01.043Z,2.3
2023-03-23T06:02:01.099Z,2.4
2023-03-23T06:07:01.575Z,2.1
2023-03-23T06:12:01.051Z,2.5
2023-03-23T06:17:01.048Z,2.4
2023-03-23T06:22:01.082Z,1.6
2023-03-23T06:32:01.060Z,1.5
2023-03-23T06:37:01.711Z,1.1
2023-03-23T06:52:01.096Z,1.0
2023-03-23T07:02:01.069Z,0.8
2023-03-23T07:17:02.323Z,1.1
2023-03-23T07:22:01.055Z,1.3
2023-03-23T07:27:01.074Z,1.6
2023-03-23T07:32:01.151Z,1.8
2023-03-23T07:42:01.123Z,1.7
2023-03-23T07:47:01.252Z,1.8
2023-03-23T07:52:01.069Z,1.9
2023-03-23T07:57:01.085Z,2.3
2023-03-23T08:02:01.124Z,2.0
2023-03-23T08:07:03.414Z,1.8
2023-03-23T08:12:01.181Z,1.6
2023-03-23T08:17:06.940Z,1.4
2023-03-23T08:22:01.172Z,0.9
2023-03-23T08:27:01.063Z,1.3
2023-03-23T08:32:01.067Z,1.8
2023-03-23T08:37:01.104Z,1.7
2023-03-23T08:42:01.072Z,1.9
2023-03-23T08:47:01.786Z,2.2
2023-03-23T08:57:01.115Z,2.0
2023-03-23T09:07:01.068Z,1.8
2023-03-23T09:12:01.472Z,1.5
2023-03-23T09:17:01.917Z,1.4
2023-03-23T09:22:01.062Z,1.2
2023-03-23T09:27:01.112Z,1.7
2023-03-23T09:32:01.428Z,2.2
2023-03-23T09:37:01.141Z,3.0
2023-03-23T09:42:01.066Z,3.4
2023-03-23T09:48:01.055Z,4.0
2023-03-23T09:53:01.080Z,3.7
2023-03-23T09:58:01.056Z,3.6
2023-03-23T10:03:06.619Z,3.4
2023-03-23T10:08:01.185Z,3.3
2023-03-23T10:13:01.092Z,3.2
2023-03-23T10:18:01.068Z,3.4
2023-03-23T10:23:01.084Z,3.3
2023-03-23T10:28:06.777Z,3.2
2023-03-23T10:33:01.065Z,3.0
2023-03-23T10:38:01.089Z,2.8
2023-03-23T10:43:01.064Z,2.4
2023-03-23T10:48:01.098Z,2.5
2023-03-23T10:53:01.122Z,2.4
2023-03-23T10:58:01.065Z,2.5
2023-03-23T11:03:01.067Z,2.3
2023-03-23T11:08:01.105Z,2.7
2023-03-23T11:18:01.059Z,2.3
2023-03-23T11:28:01.670Z,2.0
2023-03-23T11:33:01.076Z,1.8
2023-03-23T11:38:01.149Z,1.7
2023-03-23T11:43:01.071Z,2.2
2023-03-23T11:48:01.116Z,2.4
2023-03-23T11:53:01.125Z,3.0
2023-03-23T11:58:01.085Z,3.1
2023-03-23T12:03:01.136Z,2.7
2023-03-23T12:08:01.135Z,2.0
2023-03-23T12:13:01.209Z,1.6
2023-03-23T12:18:01.725Z,1.3
2023-03-23T12:23:01.070Z,1.4
2023-03-23T12:28:01.120Z,1.5
2023-03-23T12:33:01.127Z,2.2
2023-03-23T12:44:01.151Z,2.3
2023-03-23T12:49:01.065Z,2.2
2023-03-23T12:54:01.158Z,2.4
2023-03-23T12:59:01.118Z,2.0
2023-03-23T13:04:02.409Z,2.1
2023-03-23T13:09:16.394Z,1.7
2023-03-23T13:14:16.510Z,1.8
2023-03-23T13:19:01.054Z,1.9
2023-03-23T13:24:01.073Z,2.2
2023-03-23T13:34:01.106Z,2.6
2023-03-23T13:39:01.059Z,2.5
2023-03-23T13:44:01.230Z,2.2
2023-03-23T13:49:05.171Z,1.8
2023-03-23T13:54:01.159Z,1.6
2023-03-23T13:59:07.062Z,1.4
2023-03-23T14:04:01.358Z,1.2
2023-03-23T14:09:01.069Z,1.1
2023-03-23T14:14:01.059Z,1.3
2023-03-23T14:24:01.122Z,1.1
2023-03-23T14:29:01.599Z,1.2
2023-03-23T14:34:01.072Z,1.5
2023-03-23T14:39:01.068Z,1.3
2023-03-23T14:44:01.090Z,1.2
2023-03-23T14:59:01.364Z,1.0
2023-03-23T15:04:05.251Z,0.8
2023-03-23T15:09:01.175Z,1.0
2023-03-23T15:14:08.568Z,1.3
2023-03-23T15:19:11.089Z,1.2
2023-03-23T15:24:01.107Z,1.0
2023-03-23T15:29:08.975Z,1.4
2023-03-23T15:34:01.120Z,1.2
2023-03-23T15:39:02.211Z,1.0
2023-03-23T15:44:01.117Z,0.9
2023-03-23T15:49:01.132Z,1.3
2023-03-23T15:54:05.638Z,1.4
2023-03-23T15:59:01.852Z,2.2
2023-03-23T16:04:01.167Z,1.9
2023-03-23T16:09:01.179Z,1.7
2023-03-23T16:14:01.090Z,1.6
2023-03-23T16:19:01.134Z,1.0
2023-03-23T16:24:01.157Z,0.4
2023-03-23T16:29:10.161Z,1.0
2023-03-23T16:39:01.115Z,0.8
2023-03-23T16:44:01.070Z,1.4
2023-03-23T16:54:01.155Z,1.0
2023-03-23T17:09:01.151Z,0.4
2023-03-23T17:14:01.081Z,0.2
2023-03-23T17:19:01.106Z,0.4
2023-03-23T17:24:01.075Z,0.6
2023-03-23T17:29:01.138Z,0.8
2023-03-23T17:34:01.062Z,1.4
2023-03-23T17:39:01.072Z,1.8
2023-03-23T17:44:01.696Z,1.9
2023-03-23T17:49:01.119Z,2.4
2023-03-23T17:54:01.079Z,2.8
2023-03-23T17:59:01.341Z,2.6
2023-03-23T18:04:01.203Z,2.8
2023-03-23T18:14:01.090Z,2.5
2023-03-23T18:19:01.514Z,2.0
2023-03-23T18:24:01.059Z,2.2
2023-03-23T18:29:01.074Z,2.4
2023-03-23T18:34:01.091Z,2.8
2023-03-23T18:39:01.152Z,3.6
2023-03-23T18:44:01.072Z,5.0
2023-03-23T18:49:01.056Z,6.5
2023-03-23T18:54:01.109Z,8.7
2023-03-23T18:59:01.064Z,11.0
2023-03-23T19:09:01.052Z,11.2
2023-03-23T19:14:02.760Z,11.3
2023-03-23T19:19:02.681Z,10.7
2023-03-23T19:24:01.127Z,9.8
2023-03-23T19:29:19.113Z,10.6
2023-03-23T19:34:02.024Z,10.7
2023-03-23T19:39:05.335Z,10.5
2023-03-23T19:44:01.060Z,10.2
2023-03-23T19:49:01.063Z,10.9
2023-03-23T19:54:01.179Z,11.6
2023-03-23T19:59:01.121Z,11.3
2023-03-23T20:04:01.819Z,10.9
2023-03-23T20:14:01.137Z,10.1
2023-03-23T20:19:01.153Z,9.3
2023-03-23T20:24:01.076Z,10.0
2023-03-23T20:29:01.069Z,10.6
2023-03-23T20:34:01.840Z,10.2
2023-03-23T20:39:01.123Z,10.0
2023-03-23T20:44:01.060Z,10.4
2023-03-23T20:49:01.070Z,9.6
2023-03-23T20:54:01.168Z,9.0
2023-03-23T20:59:01.076Z,9.4
2023-03-23T21:04:01.053Z,8.8
2023-03-23T21:09:01.161Z,7.5
2023-03-23T21:19:01.085Z,8.0
2023-03-23T21:24:01.066Z,7.5
2023-03-23T21:29:01.209Z,8.1
2023-03-23T21:34:01.086Z,7.9
2023-03-23T21:39:01.158Z,7.4
2023-03-23T21:44:01.136Z,6.0
2023-03-23T21:49:01.049Z,4.9
2023-03-23T21:54:01.120Z,3.7
2023-03-23T21:59:01.072Z,3.4
2023-03-23T22:04:01.047Z,2.7
2023-03-23T22:09:01.065Z,2.2
2023-03-23T22:14:01.064Z,2.1
2023-03-23T22:19:01.147Z,1.9
2023-03-23T22:24:01.120Z,2.0
2023-03-23T22:29:01.055Z,2.1
2023-03-23T22:34:01.064Z,2.5
2023-03-23T22:39:01.097Z,2.8
2023-03-23T22:44:01.066Z,2.7
2023-03-23T22:49:01.072Z,2.6
2023-03-23T22:54:01.598Z,2.8
2023-03-23T22:59:01.103Z,2.6
2023-03-23T23:04:01.082Z,2.2
2023-03-23T23:09:01.083Z,2.7
2023-03-23T23:14:01.053Z,2.9
2023-03-23T23:19:01.079Z,2.8
2023-03-23T23:24:01.156Z,3.0
2023-03-23T23:29:01.054Z,3.3
2023-03-23T23:44:01.533Z,4.0
2023-03-23T23:49:01.168Z,4.5
2023-03-23T23:54:01.068Z,4.9
2023-03-23T23:59:01.169Z,5.2
